Latest Coastal Weather Observations for Lihou Reef Lighthouse

IDQ60701

Issued at 1:51 pm EST Wednesday 22 April 2015 (issued every 10 minutes, with the page automatically refreshed every 10 minutes)

About coastal observations | Map of coastal stations | Coastal observations for QLD | Marine services | Other Formats
Station Details ID: 200880 Name: LIHOU REEF LIGHTHOUSE Lat: -17.13 Lon: 152.15 Height: 0.0 m
Data from the previous 72 hours. | See also: Recent months for locations in Queensland
Date/Time
EST
Temp

°C
Wind Pressure Rain
since 9am
mm
Weather Cloud Vis
km
Sea
Height
m
Swell
Dir
 
Speed
knots
Gust
knots
hPa Trend Height
m
Period
s
Dir
22/01:30pm 26.5 SSE 11 13 1008.1 - - - - - - - - -
22/01:00pm 26.3 SE 7 10 1008.4 - - - - - - - - -
22/12:30pm 26.5 ESE 8 9 1008.9 - - - - - - - - -
22/12:00pm 26.7 E 9 11 1009.1 - - - - - - - - -
22/11:30am 26.4 ESE 10 11 1009.5 - - - - - - - - -
22/11:00am 26.4 ESE 9 11 1009.8 - - - - - - - - -
22/10:30am 26.5 ESE 9 11 1010.2 - - - - - - - - -
22/10:00am 26.6 ESE 12 13 1010.6 - - - - - - - - -
22/09:30am 26.4 ESE 13 14 1010.7 - - - - - - - - -
22/09:00am 26.7 SE 13 15 1010.6 - - - - - - - - -
22/08:30am 26.6 SE 14 16 1010.6 - - - - - - - - -
22/08:00am 26.5 SE 13 15 1010.5 - - - - - - - - -
22/07:30am 26.2 SE 12 13 1010.3 - - - - - - - - -
22/07:00am 25.6 ESE 12 14 1010.2 - - - - - - - - -
22/06:30am 26.6 SE 13 15 1010.1 - - - - - - - - -
22/06:00am 26.3 SE 13 16 1009.7 - - - - - - - - -
22/05:30am 26.4 SE 13 16 1009.3 - - - - - - - - -
22/05:00am 26.3 SE 13 15 1009.1 - - - - - - - - -
22/04:30am 26.4 SE 12 13 1009.0 - - - - - - - - -
22/04:00am 26.2 SSE 12 14 1009.0 - - - - - - - - -
22/03:30am 26.2 SE 13 15 1009.0 - - - - - - - - -
22/03:00am 26.2 SE 14 15 1009.1 - - - - - - - - -
22/02:30am 26.2 SE 13 16 1009.2 - - - - - - - - -
22/02:00am 26.2 SE 14 16 1009.6 - - - - - - - - -
22/01:30am 26.4 SE 13 15 1009.9 - - - - - - - - -
22/01:00am 26.1 ESE 13 15 1010.1 - - - - - - - - -
22/12:30am 25.9 ESE 12 14 1010.4 - - - - - - - - -
 
Date/Time
EST
Temp

°C
Wind Pressure Rain
since 9am
mm
Weather Cloud Vis
km
Sea
Height
m
Swell
Dir
 
Speed
knots
Gust
knots
hPa Trend Height
m
Period
s
Dir
21/11:30pm 25.1 ESE 17 23 1011.0 - - - - - - - - -
21/11:00pm 26.5 ESE 13 15 1011.3 - - - - - - - - -
21/10:30pm 26.6 ESE 14 17 1011.4 - - - - - - - - -
21/10:00pm 26.6 E 14 16 1011.5 - - - - - - - - -
21/09:30pm 26.3 ESE 15 18 1011.3 - - - - - - - - -
21/09:00pm 26.2 ESE 17 20 1011.0 - - - - - - - - -
21/08:30pm 26.2 ESE 18 20 1011.2 - - - - - - - - -
21/08:00pm 26.3 ESE 18 21 1011.1 - - - - - - - - -
21/07:30pm 26.4 ESE 18 22 1011.0 - - - - - - - - -
21/07:00pm 26.2 ESE 19 23 1010.7 - - - - - - - - -
21/06:30pm 26.0 ESE 19 23 1010.3 - - - - - - - - -
21/06:00pm 25.9 E 20 23 1010.0 - - - - - - - - -
21/05:30pm 25.6 SE 16 19 1009.8 - - - - - - - - -
21/05:00pm 25.1 SE 14 17 1009.7 - - - - - - - - -
21/04:30pm 24.5 SE 16 19 1009.9 - - - - - - - - -
21/04:00pm 24.3 ESE 20 23 1009.8 - - - - - - - - -
21/03:30pm 24.7 ESE 18 21 1009.9 - - - - - - - - -
21/03:00pm 24.8 ESE 18 22 1009.9 - - - - - - - - -
21/02:30pm 25.1 SE 23 27 1010.1 - - - - - - - - -
21/02:00pm 25.4 SE 22 26 1010.2 - - - - - - - - -
21/01:30pm 25.4 SE 21 24 1010.4 - - - - - - - - -
21/01:00pm 25.8 SSE 20 24 1010.7 - - - - - - - - -
21/12:30pm 25.9 SE 16 19 1011.2 - - - - - - - - -
21/12:00pm 25.6 SE 16 17 1011.5 - - - - - - - - -
21/11:30am 25.5 SE 15 17 1011.9 - - - - - - - - -
21/11:00am 24.6 SE 17 20 1012.4 - - - - - - - - -
21/10:30am 26.4 SE 18 22 1012.5 - - - - - - - - -
21/10:00am 26.9 SE 16 19 1012.6 - - - - - - - - -
21/09:30am 26.9 SE 14 15 1012.7 - - - - - - - - -
21/09:00am 26.9 SE 14 16 1012.7 - - - - - - - - -
21/08:30am 26.8 SE 14 15 1012.7 - - - - - - - - -
21/08:00am 26.8 SE 13 15 1012.5 - - - - - - - - -
21/07:30am 26.4 SE 13 15 1012.1 - - - - - - - - -
21/07:00am 26.5 SE 12 16 1011.7 - - - - - - - - -
21/06:30am 26.5 SE 12 14 1011.4 - - - - - - - - -
21/06:00am 25.8 ESE 8 10 1011.2 - - - - - - - - -
21/05:30am 26.4 SE 13 18 1010.8 - - - - - - - - -
21/05:00am 26.4 SE 10 13 1010.8 - - - - - - - - -
21/04:30am 25.1 ESE 10 13 1011.1 - - - - - - - - -
21/04:00am 25.8 SE 13 16 1010.9 - - - - - - - - -
21/03:30am 25.7 SE 12 13 1010.8 - - - - - - - - -
21/03:00am 25.0 SE 13 16 1011.0 - - - - - - - - -
21/02:30am 25.4 SE 15 18 1011.0 - - - - - - - - -
21/02:00am 25.6 E 12 14 1011.4 - - - - - - - - -
21/01:30am 25.4 ESE 12 15 1011.9 - - - - - - - - -
21/01:00am 25.1 E 14 21 1011.9 - - - - - - - - -
21/12:30am 25.1 ESE 9 10 1012.4 - - - - - - - - -
21/12:00am 24.5 ESE 11 13 1012.7 - - - - - - - - -
 
Date/Time
EST
Temp

°C
Wind Pressure Rain
since 9am
mm
Weather Cloud Vis
km
Sea
Height
m
Swell
Dir
 
Speed
knots
Gust
knots
hPa Trend Height
m
Period
s
Dir
20/11:46pm 24.9 ESE 16 20 1012.8 - - - - - - - - -
20/11:30pm 24.7 SE 21 25 1012.7 - - - - - - - - -
20/11:00pm 26.3 SE 12 17 1012.8 - - - - - - - - -
20/10:30pm 26.0 ESE 15 17 1013.1 - - - - - - - - -
20/10:00pm 25.6 SE 21 27 1013.2 - - - - - - - - -
20/09:30pm 26.4 ESE 18 23 1013.2 - - - - - - - - -
20/09:00pm 26.7 SE 21 26 1013.2 - - - - - - - - -
20/08:30pm 27.2 SE 17 21 1013.0 - - - - - - - - -
20/08:00pm 27.1 SE 16 20 1012.9 - - - - - - - - -
20/07:30pm 27.4 SE 17 19 1012.7 - - - - - - - - -
20/07:00pm 27.4 SE 17 19 1012.6 - - - - - - - - -
20/06:30pm 27.4 SE 17 20 1012.3 - - - - - - - - -
20/06:00pm 27.5 SE 16 19 1012.1 - - - - - - - - -
20/05:30pm 27.3 SE 16 18 1011.6 - - - - - - - - -
20/05:00pm 27.4 SE 16 18 1011.3 - - - - - - - - -
20/04:30pm 27.4 ESE 15 18 1011.2 - - - - - - - - -
20/04:00pm 27.6 SE 15 17 1010.9 - - - - - - - - -
20/03:30pm 27.6 ESE 14 16 1010.6 - - - - - - - - -
20/03:00pm 27.7 ESE 14 16 1010.4 - - - - - - - - -
20/02:30pm 27.5 ESE 15 17 1010.3 - - - - - - - - -
20/02:00pm 27.7 ESE 15 18 1010.4 - - - - - - - - -
20/01:30pm 27.6 ESE 13 15 1010.8 - - - - - - - - -
20/01:00pm 27.5 ESE 15 17 1010.9 - - - - - - - - -
20/12:30pm 27.5 ESE 15 17 1011.3 - - - - - - - - -
20/12:00pm 27.6 ESE 15 18 1011.7 - - - - - - - - -
20/11:30am 27.7 ESE 14 16 1012.3 - - - - - - - - -
20/11:00am 27.7 ESE 14 16 1013.0 - - - - - - - - -
20/10:30am 27.6 ESE 15 18 1013.3 - - - - - - - - -
20/10:00am 27.8 ESE 15 19 1013.7 - - - - - - - - -
20/09:30am 27.6 ESE 16 20 1013.8 - - - - - - - - -
20/09:00am 27.7 ESE 18 21 1013.8 - - - - - - - - -
20/08:30am 27.7 ESE 17 20 1013.6 - - - - - - - - -
20/08:00am 27.6 ESE 17 19 1013.5 - - - - - - - - -
20/07:30am 27.6 ESE 18 21 1013.2 - - - - - - - - -
20/07:00am 27.4 ESE 18 21 1012.9 - - - - - - - - -
20/06:30am 27.4 ESE 18 22 1012.8 - - - - - - - - -
20/06:00am 27.3 ESE 16 19 1012.5 - - - - - - - - -
20/05:30am 27.2 ESE 17 19 1012.4 - - - - - - - - -
20/05:00am 27.1 ESE 17 20 1012.2 - - - - - - - - -
20/04:30am 27.2 ESE 16 19 1012.1 - - - - - - - - -
20/04:00am 27.2 ESE 18 20 1011.7 - - - - - - - - -
20/03:30am 27.2 ESE 17 20 1011.7 - - - - - - - - -
20/03:00am 27.0 ESE 19 21 1011.6 - - - - - - - - -
20/02:30am 27.1 ESE 18 21 1011.7 - - - - - - - - -
20/02:00am 27.2 ESE 18 20 1012.1 - - - - - - - - -
20/01:30am 27.2 ESE 17 20 1012.4 - - - - - - - - -
20/01:00am 27.2 ESE 18 21 1012.7 - - - - - - - - -
20/12:30am 27.3 ESE 16 19 1013.3 - - - - - - - - -
20/12:00am 27.4 ESE 17 19 1013.8 - - - - - - - - -
 
Date/Time
EST
Temp

°C
Wind Pressure Rain
since 9am
mm
Weather Cloud Vis
km
Sea
Height
m
Swell
Dir
 
Speed
knots
Gust
knots
hPa Trend Height
m
Period
s
Dir
19/11:30pm 27.5 ESE 16 19 1014.0 - - - - - - - - -
19/11:00pm 27.5 ESE 17 21 1014.3 - - - - - - - - -
19/10:30pm 27.5 ESE 17 20 1014.4 - - - - - - - - -
19/10:00pm 27.5 ESE 17 21 1014.2 - - - - - - - - -
19/09:30pm 27.4 ESE 19 22 1014.2 - - - - - - - - -
19/09:00pm 27.5 ESE 18 22 1014.1 - - - - - - - - -
19/08:30pm 27.4 ESE 18 21 1014.1 - - - - - - - - -
19/08:00pm 27.1 ESE 17 21 1014.0 - - - - - - - - -
19/07:30pm 27.4 ESE 18 22 1013.4 - - - - - - - - -
19/07:00pm 27.4 ESE 18 21 1013.0 - - - - - - - - -
19/06:30pm 27.3 ESE 18 21 1012.8 - - - - - - - - -
19/06:00pm 27.4 ESE 18 22 1012.6 - - - - - - - - -
19/05:30pm 27.3 ESE 18 20 1012.3 - - - - - - - - -
19/05:00pm 27.3 ESE 18 23 1012.2 - - - - - - - - -
19/04:30pm 27.2 SE 17 21 1011.9 - - - - - - - - -
19/04:00pm 27.3 ESE 17 21 1011.7 - - - - - - - - -
19/03:30pm 27.1 ESE 16 21 1011.7 - - - - - - - - -
19/03:00pm 27.2 ESE 16 19 1011.6 - - - - - - - - -
19/02:30pm 26.9 ESE 15 20 1011.7 - - - - - - - - -
19/02:00pm 26.9 ESE 18 22 1011.9 - - - - - - - - -

Other Formats:

Comma delimited format used in spreadsheet applications
http://www.bom.gov.au/fwo/IDQ60701/IDQ60701.94293.axf

JavaScript Object Notation format (JSON) in row-major order
http://www.bom.gov.au/fwo/IDQ60701/IDQ60701.94293.json